BLL weather

Billund Airport
Billund, South Denmark, Denmark

Public forecast

Using degrees Celsius for public forecast. Weather courtesy of forecast.io.

Current aviation weather report (METAR) for Billund Airport

Retrieved 2019/10/22 09:20 UTC (27 minutes ago):

EKBI 220920Z AUTO 26006KT 9999 OVC004/// 10/09 Q1019

Aviation forecast (TAF) for Billund Airport

Retrieved 2019/10/22 06:30 UTC (3 hours ago):

TAF EKBI 220507Z 2206/2306 25008KT 0200 FG BKN002 TEMPO 2206/2208 3000 BR BKN006 BECMG 2208/2210 9999 NSW BKN020 TEMPO 2210/2212 BKN010